Time;durP1;ratioP1;P1;durP2;ratioP2;P2;SDS_P1;SDS_P2;PMS_P1;PMS_P2;Temp;Humidity;BMP_temperature;BMP_pressure;BME280_temperature;BME280_humidity;BME280_pressure;Samples;Min_cycle;Max_cycle;Signal;HPM_P1;HPM_P2
2023/07/25 00:01:11;;;;;;;;;;;;;;;11.98;100.00;100736.63;5059803;28;20230;-49
2023/07/25 00:03:36;;;;;;;;;;;;;;;11.95;100.00;100731.44;5062598;28;20011;-52
2023/07/25 00:06:05;;;;;;;;;;;;;;;11.90;100.00;100738.19;5065342;28;19920;-53
2023/07/25 00:08:31;;;;;;;;;;;;;;;11.82;100.00;100738.00;5063903;28;20359;-49
2023/07/25 00:10:57;;;;;;;;;;;;;;;11.77;100.00;100741.31;5066768;28;20409;-50
2023/07/25 00:13:22;;;;;;;;;;;;;;;11.71;100.00;100736.91;5047436;28;19999;-51
2023/07/25 00:15:47;;;;;;;;;;;;;;;11.65;100.00;100741.94;5065383;28;19924;-50
2023/07/25 00:18:12;;;;;;;;;;;;;;;11.60;100.00;100734.94;5064095;27;19930;-49
2023/07/25 00:20:38;;;;;;;;;;;;;;;11.54;100.00;100735.66;5045899;28;20011;-49
2023/07/25 00:23:03;;;;;;;;;;;;;;;11.50;100.00;100733.84;5063810;28;20339;-48
2023/07/25 00:25:28;;;;;;;;;;;;;;;11.48;100.00;100736.41;5059001;28;20138;-49
2023/07/25 00:27:53;;;;;;;;;;;;;;;11.46;100.00;100732.91;5074406;27;19924;-51
2023/07/25 00:30:19;;;;;;;;;;;;;;;11.46;100.00;100738.06;5064601;28;19917;-49
2023/07/25 00:32:44;;;;;;;;;;;;;;;11.44;100.00;100729.44;5064025;28;19956;-49
2023/07/25 00:35:09;;;;;;;;;;;;;;;11.46;100.00;100734.59;5065528;28;20355;-49
2023/07/25 00:37:34;;;;;;;;;;;;;;;11.44;100.00;100736.28;5060913;28;19924;-49
2023/07/25 00:40:00;;;;;;;;;;;;;;;11.40;100.00;100737.91;5061576;28;19924;-52
2023/07/25 00:42:25;;;;;;;;;;;;;;;11.39;100.00;100733.59;5064234;28;20010;-49
2023/07/25 00:44:50;;;;;;;;;;;;;;;11.37;100.00;100734.41;5063329;28;19917;-48
2023/07/25 00:47:16;;;;;;;;;;;;;;;11.31;100.00;100735.16;5043377;28;20363;-51
2023/07/25 00:49:42;;;;;;;;;;;;;;;11.27;100.00;100733.31;5063446;28;19921;-51
2023/07/25 00:52:08;;;;;;;;;;;;;;;11.26;100.00;100731.59;5043832;28;20378;-48
2023/07/25 00:54:37;;;;;;;;;;;;;;;11.23;100.00;100732.41;5061746;28;19921;-48
2023/07/25 00:57:02;;;;;;;;;;;;;;;11.22;100.00;100725.53;5060565;28;19920;-49
2023/07/25 00:59:27;;;;;;;;;;;;;;;11.20;100.00;100727.16;5056633;27;19939;-47
2023/07/25 01:01:53;;;;;;;;;;;;;;;11.19;100.00;100727.13;5059374;27;20000;-49
2023/07/25 01:04:18;;;;;;;;;;;;;;;11.15;100.00;100731.34;5060289;27;19960;-50
2023/07/25 01:06:43;;;;;;;;;;;;;;;11.17;100.00;100729.69;5060667;28;19947;-48
2023/07/25 01:09:08;;;;;;;;;;;;;;;11.15;100.00;100733.91;5057916;28;19924;-51
2023/07/25 01:11:34;;;;;;;;;;;;;;;11.16;100.00;100727.06;5059697;28;20019;-49
2023/07/25 01:13:59;;;;;;;;;;;;;;;11.19;100.00;100730.59;5057870;27;19932;-49
2023/07/25 01:16:25;;;;;;;;;;;;;;;11.23;100.00;100718.66;5041856;27;19969;-51
2023/07/25 01:18:51;;;;;;;;;;;;;;;11.25;100.00;100717.84;5038596;28;19964;-47
2023/07/25 01:21:17;;;;;;;;;;;;;;;11.24;100.00;100721.25;5040789;28;20387;-48
2023/07/25 01:23:42;;;;;;;;;;;;;;;11.21;100.00;100717.75;5037314;28;19928;-51
2023/07/25 01:26:08;;;;;;;;;;;;;;;11.14;100.00;100716.72;5038205;28;20375;-51
2023/07/25 01:28:33;;;;;;;;;;;;;;;11.09;100.00;100718.31;5041134;28;19952;-52
2023/07/25 01:30:58;;;;;;;;;;;;;;;11.07;100.00;100722.56;5039606;28;19937;-50
2023/07/25 01:33:24;;;;;;;;;;;;;;;11.09;100.00;100715.75;5040444;28;19921;-50
2023/07/25 01:35:49;;;;;;;;;;;;;;;11.09;100.00;100720.91;5038663;28;20012;-49
2023/07/25 01:38:14;;;;;;;;;;;;;;;11.05;100.00;100721.69;5041053;28;19917;-49
2023/07/25 01:40:40;;;;;;;;;;;;;;;11.01;100.00;100710.44;5043293;28;20294;-49
2023/07/25 01:43:05;;;;;;;;;;;;;;;10.98;100.00;100714.63;5040437;28;20015;-48
2023/07/25 01:45:31;;;;;;;;;;;;;;;10.96;100.00;100708.56;5041797;28;20031;-49
2023/07/25 01:47:57;;;;;;;;;;;;;;;10.93;100.00;100705.94;5043752;28;19913;-48
2023/07/25 01:50:22;;;;;;;;;;;;;;;10.94;100.00;100708.56;5043261;28;19939;-51
2023/07/25 01:52:47;;;;;;;;;;;;;;;10.96;100.00;100706.88;5037987;28;20363;-52
2023/07/25 01:55:13;;;;;;;;;;;;;;;10.97;100.00;100693.16;5034031;28;19924;-51
2023/07/25 01:57:38;;;;;;;;;;;;;;;10.96;100.00;100703.44;5037656;28;19929;-49
2023/07/25 02:00:03;;;;;;;;;;;;;;;10.92;100.00;100699.03;5035333;28;19921;-48
2023/07/25 02:02:29;;;;;;;;;;;;;;;10.91;100.00;100697.31;5034335;28;19975;-51
2023/07/25 02:04:54;;;;;;;;;;;;;;;10.89;100.00;100698.97;5036319;28;19928;-52
2023/07/25 02:07:19;;;;;;;;;;;;;;;10.86;100.00;100696.31;5062151;28;19928;-51
2023/07/25 02:09:44;;;;;;;;;;;;;;;10.84;100.00;100700.56;5038578;27;20386;-51
2023/07/25 02:12:10;;;;;;;;;;;;;;;10.83;100.00;100693.69;5028837;28;19928;-51
2023/07/25 02:14:35;;;;;;;;;;;;;;;10.83;100.00;100691.13;5036046;28;19935;-52
2023/07/25 02:17:00;;;;;;;;;;;;;;;10.82;100.00;100691.94;5037622;28;20378;-51
2023/07/25 02:19:26;;;;;;;;;;;;;;;10.81;100.00;100691.09;5054142;28;19932;-54
2023/07/25 02:21:51;;;;;;;;;;;;;;;10.80;100.00;100691.03;5058494;28;19924;-51
2023/07/25 02:24:16;;;;;;;;;;;;;;;10.79;100.00;100689.28;5054832;28;19921;-51
2023/07/25 02:26:41;;;;;;;;;;;;;;;10.74;100.00;100696.91;5057259;27;19924;-51
2023/07/25 02:29:06;;;;;;;;;;;;;;;10.70;100.00;100687.38;5054266;28;19922;-49
2023/07/25 02:31:32;;;;;;;;;;;;;;;10.66;100.00;100689.00;5058490;28;20540;-51
2023/07/25 02:33:57;;;;;;;;;;;;;;;10.65;100.00;100691.53;5062357;28;19956;-51
2023/07/25 02:36:22;;;;;;;;;;;;;;;10.62;100.00;100687.19;5058000;28;19921;-51
2023/07/25 02:38:48;;;;;;;;;;;;;;;10.62;100.00;100688.91;5062059;27;19916;-49
2023/07/25 02:41:13;;;;;;;;;;;;;;;10.59;100.00;100687.09;5061479;28;19927;-51
2023/07/25 02:43:38;;;;;;;;;;;;;;;10.57;100.00;100680.19;5062978;28;19939;-49
2023/07/25 02:46:04;;;;;;;;;;;;;;;10.53;100.00;100680.94;5063137;28;19979;-50
2023/07/25 02:48:29;;;;;;;;;;;;;;;10.50;100.00;100693.72;5066031;27;19939;-51
2023/07/25 02:50:54;;;;;;;;;;;;;;;10.50;100.00;100692.03;5061851;27;19920;-50
2023/07/25 02:53:20;;;;;;;;;;;;;;;10.46;100.00;100691.06;5059171;28;20014;-51
2023/07/25 02:55:45;;;;;;;;;;;;;;;10.46;100.00;100690.19;5062471;28;19929;-50
2023/07/25 02:58:12;;;;;;;;;;;;;;;10.45;100.00;100688.47;5061275;27;19925;-50
2023/07/25 03:00:37;;;;;;;;;;;;;;;10.45;100.00;100693.59;5057486;28;19935;-49
2023/07/25 03:03:03;;;;;;;;;;;;;;;10.44;100.00;100691.88;5059860;28;19920;-48
2023/07/25 03:05:28;;;;;;;;;;;;;;;10.40;100.00;100690.03;5058089;27;20287;-49
2023/07/25 03:07:53;;;;;;;;;;;;;;;10.38;100.00;100684.00;5057002;28;19924;-50
2023/07/25 03:10:19;;;;;;;;;;;;;;;10.36;100.00;100690.78;5055578;28;19936;-50
2023/07/25 03:12:44;;;;;;;;;;;;;;;10.38;100.00;100689.16;5055431;28;20370;-50
2023/07/25 03:15:09;;;;;;;;;;;;;;;10.37;100.00;100688.25;5056883;28;20032;-48
2023/07/25 03:17:34;;;;;;;;;;;;;;;10.38;100.00;100691.72;5056371;28;21068;-49
2023/07/25 03:20:00;;;;;;;;;;;;;;;10.39;100.00;100690.88;5058629;28;19932;-49
2023/07/25 03:22:25;;;;;;;;;;;;;;;10.38;100.00;100694.28;5051779;28;20382;-49
2023/07/25 03:24:50;;;;;;;;;;;;;;;10.39;100.00;100701.16;5055383;28;19956;-53
2023/07/25 03:27:19;;;;;;;;;;;;;;;10.40;100.00;100693.47;5056899;27;21173;-49
2023/07/25 03:29:44;;;;;;;;;;;;;;;10.44;100.00;100691.88;5054809;28;19924;-49
2023/07/25 03:32:09;;;;;;;;;;;;;;;10.45;100.00;100685.91;5055361;28;20270;-51
2023/07/25 03:34:35;;;;;;;;;;;;;;;10.46;100.00;100682.50;5053622;27;19923;-53
2023/07/25 03:37:00;;;;;;;;;;;;;;;10.44;100.00;100677.31;5068400;27;19979;-48
2023/07/25 03:39:25;;;;;;;;;;;;;;;10.42;100.00;100678.09;5050524;28;19940;-49
2023/07/25 03:41:50;;;;;;;;;;;;;;;10.40;100.00;100674.63;5057304;28;20767;-50
2023/07/25 03:44:19;;;;;;;;;;;;;;;10.38;100.00;100677.16;5051255;28;19980;-48
2023/07/25 03:46:45;;;;;;;;;;;;;;;10.41;100.00;100679.78;5056692;27;19920;-50
2023/07/25 03:49:10;;;;;;;;;;;;;;;10.43;100.00;100680.72;5059086;28;20393;-51
2023/07/25 03:51:36;;;;;;;;;;;;;;;10.46;100.00;100675.66;5055739;28;20371;-49
2023/07/25 03:54:05;;;;;;;;;;;;;;;10.50;100.00;100673.16;5061053;28;20346;-51
2023/07/25 03:56:31;;;;;;;;;;;;;;;10.56;100.00;100681.03;5056268;28;19921;-52
2023/07/25 03:58:56;;;;;;;;;;;;;;;10.60;100.00;100678.56;5057248;28;19927;-52
2023/07/25 04:01:21;;;;;;;;;;;;;;;10.64;100.00;100682.94;5055838;28;19921;-51
2023/07/25 04:03:47;;;;;;;;;;;;;;;10.66;100.00;100680.41;5055488;28;19928;-52
2023/07/25 04:06:12;;;;;;;;;;;;;;;10.67;100.00;100682.16;5060861;28;20444;-51
2023/07/25 04:08:37;;;;;;;;;;;;;;;10.66;100.00;100680.41;5056635;28;19939;-52
2023/07/25 04:11:03;;;;;;;;;;;;;;;10.63;100.00;100678.66;5058401;28;19928;-51
2023/07/25 04:13:28;;;;;;;;;;;;;;;10.63;100.00;100688.06;5057756;28;20327;-51
2023/07/25 04:15:53;;;;;;;;;;;;;;;10.63;100.00;100688.94;5059598;28;19931;-52
2023/07/25 04:18:18;;;;;;;;;;;;;;;10.62;100.00;100686.31;5057807;28;20015;-51
2023/07/25 04:20:45;;;;;;;;;;;;;;;10.64;100.00;100689.78;5055197;28;21977;-52
2023/07/25 04:23:11;;;;;;;;;;;;;;;10.62;100.00;100687.19;5058690;28;19931;-49
2023/07/25 04:25:36;;;;;;;;;;;;;;;10.64;100.00;100680.38;5059274;28;19921;-51
2023/07/25 04:28:01;;;;;;;;;;;;;;;10.62;100.00;100683.75;5057454;28;20286;-50
2023/07/25 04:30:26;;;;;;;;;;;;;;;10.64;100.00;100688.09;5041520;28;20546;-52
2023/07/25 04:32:52;;;;;;;;;;;;;;;10.68;100.00;100689.91;5061222;28;19991;-54
2023/07/25 04:35:17;;;;;;;;;;;;;;;10.68;100.00;100692.50;5065977;27;20286;-52
2023/07/25 04:37:42;;;;;;;;;;;;;;;10.70;100.00;100689.94;5065235;28;19924;-51
2023/07/25 04:40:08;;;;;;;;;;;;;;;10.74;100.00;100689.19;5066772;28;20285;-52
2023/07/25 04:42:33;;;;;;;;;;;;;;;10.82;100.00;100690.25;5064537;28;20020;-51
2023/07/25 04:44:58;;;;;;;;;;;;;;;10.88;100.00;100692.09;5062425;28;19978;-52
2023/07/25 04:47:23;;;;;;;;;;;;;;;10.94;100.00;100692.25;5061786;28;19983;-51
2023/07/25 04:49:49;;;;;;;;;;;;;;;11.00;100.00;100697.53;5063262;28;19920;-51
2023/07/25 04:52:14;;;;;;;;;;;;;;;11.06;100.00;100701.97;5063632;28;19912;-48
2023/07/25 04:54:39;;;;;;;;;;;;;;;11.11;100.00;100700.38;5061669;28;20358;-51
2023/07/25 04:57:05;;;;;;;;;;;;;;;11.18;100.00;100704.81;5064264;28;19921;-52
2023/07/25 04:59:31;;;;;;;;;;;;;;;11.27;100.00;100698.16;5060569;28;19921;-52
2023/07/25 05:01:57;;;;;;;;;;;;;;;11.41;100.00;100698.47;5059888;28;20038;-52
2023/07/25 05:04:22;;;;;;;;;;;;;;;11.51;100.00;100689.22;5056715;28;20007;-52
2023/07/25 05:06:48;;;;;;;;;;;;;;;11.59;100.00;100694.53;5058584;28;19929;-55
2023/07/25 05:09:15;;;;;;;;;;;;;;;11.67;100.00;100693.88;5053297;28;20040;-56
2023/07/25 05:11:40;;;;;;;;;;;;;;;11.81;100.00;100696.75;5054578;28;19925;-56
2023/07/25 05:14:05;;;;;;;;;;;;;;;12.02;100.00;100689.47;5058296;28;19935;-55
2023/07/25 05:16:31;;;;;;;;;;;;;;;12.52;100.00;100688.66;5058049;28;19927;-55
2023/07/25 05:18:56;;;;;;;;;;;;;;;12.96;100.00;100694.53;5060333;28;19977;-56
2023/07/25 05:21:21;;;;;;;;;;;;;;;13.09;100.00;100695.59;5051888;28;19921;-55
2023/07/25 05:23:46;;;;;;;;;;;;;;;13.11;100.00;100688.75;5052532;28;19920;-55
2023/07/25 05:26:12;;;;;;;;;;;;;;;13.13;100.00;100699.97;5054736;28;19933;-56
2023/07/25 05:28:37;;;;;;;;;;;;;;;13.13;100.00;100699.97;5046318;27;19941;-56
2023/07/25 05:31:03;;;;;;;;;;;;;;;13.21;100.00;100694.94;5034734;28;20374;-55
2023/07/25 05:33:28;;;;;;;;;;;;;;;13.35;100.00;100696.03;5050275;28;19985;-55
2023/07/25 05:36:01;;;;;;;;;;;;;;;13.41;100.00;100701.28;5052738;28;20418;-56
2023/07/25 05:38:26;;;;;;;;;;;;;;;13.42;100.00;100700.44;5057105;28;19931;-55
2023/07/25 05:40:52;;;;;;;;;;;;;;;13.45;100.00;100692.72;5055709;28;20937;-56
2023/07/25 05:43:18;;;;;;;;;;;;;;;13.76;100.00;100698.28;5059304;28;19921;-56
2023/07/25 05:45:43;;;;;;;;;;;;;;;14.20;100.00;100701.38;5056622;28;19924;-55
2023/07/25 05:48:08;;;;;;;;;;;;;;;14.38;100.00;100704.16;5058170;28;19969;-55
2023/07/25 05:50:34;;;;;;;;;;;;;;;14.38;100.00;100706.75;5051193;28;20434;-55
2023/07/25 05:52:59;;;;;;;;;;;;;;;14.46;100.00;100710.31;5056221;28;19929;-56
2023/07/25 05:55:24;;;;;;;;;;;;;;;14.47;100.00;100717.22;5059782;28;19932;-56
2023/07/25 05:57:49;;;;;;;;;;;;;;;14.57;100.00;100714.72;5061751;28;20031;-56
2023/07/25 06:00:15;;;;;;;;;;;;;;;14.68;100.00;100718.25;5061309;27;19927;-56
2023/07/25 06:02:40;;;;;;;;;;;;;;;14.74;100.00;100720.88;5063651;28;19920;-56
2023/07/25 06:05:06;;;;;;;;;;;;;;;14.76;100.00;100719.22;5061848;28;19925;-56
2023/07/25 06:07:32;;;;;;;;;;;;;;;14.76;100.00;100724.38;5044571;28;19928;-56
2023/07/25 06:09:57;;;;;;;;;;;;;;;14.81;100.00;100717.53;5060363;28;20057;-55
2023/07/25 06:12:22;;;;;;;;;;;;;;;14.77;100.00;100720.06;5060944;28;20301;-56
2023/07/25 06:14:48;;;;;;;;;;;;;;;14.72;100.00;100712.25;5062661;28;20367;-56
2023/07/25 06:17:13;;;;;;;;;;;;;;;14.70;100.00;100709.66;5053950;28;19968;-55
2023/07/25 06:19:38;;;;;;;;;;;;;;;14.67;100.00;100714.81;5058225;28;20316;-52
2023/07/25 06:22:03;;;;;;;;;;;;;;;14.83;100.00;100713.22;5057831;28;20017;-56
2023/07/25 06:24:29;;;;;;;;;;;;;;;15.14;100.00;100703.97;5066723;27;19942;-54
2023/07/25 06:26:54;;;;;;;;;;;;;;;15.37;100.00;100709.28;5062448;28;20012;-56
2023/07/25 06:29:19;;;;;;;;;;;;;;;15.55;100.00;100708.53;5062283;28;20397;-55
2023/07/25 06:31:45;;;;;;;;;;;;;;;15.75;100.00;100712.09;5065079;28;19965;-56
2023/07/25 06:34:10;;;;;;;;;;;;;;;15.90;100.00;100711.31;5060976;28;19954;-55
2023/07/25 06:36:35;;;;;;;;;;;;;;;15.90;100.00;100724.28;5062121;28;19916;-56
2023/07/25 06:39:00;;;;;;;;;;;;;;;15.78;100.00;100727.69;5064618;28;19920;-55
2023/07/25 06:41:26;;;;;;;;;;;;;;;15.75;100.00;100732.84;5064126;28;19973;-56
2023/07/25 06:43:51;;;;;;;;;;;;;;;15.87;100.00;100733.78;5046335;27;19924;-56
2023/07/25 06:46:16;;;;;;;;;;;;;;;16.22;100.00;100729.56;5056896;27;19995;-55
2023/07/25 06:48:41;;;;;;;;;;;;;;;16.69;95.64;100733.13;5056452;28;19921;-55
2023/07/25 06:51:07;;;;;;;;;;;;;;;17.22;98.76;100732.28;5056704;28;19966;-55
2023/07/25 06:53:32;;;;;;;;;;;;;;;17.58;93.65;100729.59;5058548;28;19941;-56
2023/07/25 06:55:57;;;;;;;;;;;;;;;17.72;99.74;100726.16;5061715;28;20298;-56
2023/07/25 06:58:22;;;;;;;;;;;;;;;17.65;95.50;100720.94;5057441;28;19932;-56
2023/07/25 07:00:48;;;;;;;;;;;;;;;17.58;95.83;100720.94;5062757;28;20366;-56
2023/07/25 07:03:13;;;;;;;;;;;;;;;17.79;98.56;100720.06;5061458;28;19921;-56
2023/07/25 07:05:38;;;;;;;;;;;;;;;17.84;91.91;100731.31;5060895;27;19955;-56
2023/07/25 07:08:04;;;;;;;;;;;;;;;17.86;93.37;100735.63;5058720;28;20392;-57
2023/07/25 07:10:29;;;;;;;;;;;;;;;17.73;88.34;100744.34;5058104;28;20075;-56
2023/07/25 07:12:54;;;;;;;;;;;;;;;17.79;89.43;100740.88;5057830;28;19924;-56
2023/07/25 07:15:24;;;;;;;;;;;;;;;17.88;87.99;100739.06;5059729;28;19935;-56
2023/07/25 07:17:50;;;;;;;;;;;;;;;18.13;90.15;100725.97;5059594;28;19924;-56
2023/07/25 07:20:15;;;;;;;;;;;;;;;18.48;92.11;100731.81;5058598;28;19920;-56
2023/07/25 07:22:41;;;;;;;;;;;;;;;18.90;86.47;100735.03;5058282;28;19916;-56
2023/07/25 07:25:06;;;;;;;;;;;;;;;19.36;86.86;100741.59;5057328;28;19920;-54
2023/07/25 07:27:31;;;;;;;;;;;;;;;19.75;82.96;100742.91;5061701;28;19923;-55
2023/07/25 07:29:56;;;;;;;;;;;;;;;19.94;86.18;100735.72;5057021;28;19929;-52
2023/07/25 07:32:22;;;;;;;;;;;;;;;19.82;83.80;100741.97;5061506;28;21742;-55
2023/07/25 07:34:47;;;;;;;;;;;;;;;19.65;85.17;100739.53;5061709;28;19927;-55
2023/07/25 07:37:12;;;;;;;;;;;;;;;19.37;87.02;100749.38;5064406;28;19920;-56
2023/07/25 07:39:39;;;;;;;;;;;;;;;19.19;84.73;100749.56;5062480;28;20011;-54
2023/07/25 07:42:05;;;;;;;;;;;;;;;18.86;79.05;100737.66;5065185;28;19927;-54
2023/07/25 07:44:30;;;;;;;;;;;;;;;18.59;83.48;100747.38;5063515;28;19958;-56
2023/07/25 07:46:55;;;;;;;;;;;;;;;18.40;80.23;100753.59;5061981;28;19940;-55
2023/07/25 07:49:20;;;;;;;;;;;;;;;18.10;79.37;100746.81;5059281;27;20007;-51
2023/07/25 07:51:46;;;;;;;;;;;;;;;18.10;82.61;100747.66;5060368;28;19927;-56
2023/07/25 07:54:11;;;;;;;;;;;;;;;18.11;78.28;100748.53;5057157;28;19928;-58
2023/07/25 07:56:36;;;;;;;;;;;;;;;18.03;76.32;100753.78;5060312;27;20355;-56
2023/07/25 07:59:01;;;;;;;;;;;;;;;17.91;77.12;100761.63;5055508;28;19920;-52
2023/07/25 08:01:27;;;;;;;;;;;;;;;17.84;77.12;100767.72;5059511;28;19929;-54
2023/07/25 08:03:52;;;;;;;;;;;;;;;17.75;74.13;100773.81;5056341;28;19928;-53
2023/07/25 08:06:17;;;;;;;;;;;;;;;17.75;78.50;100771.19;5027834;27;19932;-53
2023/07/25 08:08:43;;;;;;;;;;;;;;;17.85;79.18;100772.91;5057518;28;19984;-56
2023/07/25 08:11:08;;;;;;;;;;;;;;;17.83;76.53;100774.63;5058753;27;19929;-52
2023/07/25 08:13:33;;;;;;;;;;;;;;;17.78;75.62;100773.81;5060250;27;19967;-56
2023/07/25 08:15:58;;;;;;;;;;;;;;;17.81;77.33;100784.19;5042294;27;20431;-54
2023/07/25 08:18:24;;;;;;;;;;;;;;;17.83;71.03;100785.03;5057834;28;20003;-56
2023/07/25 08:20:54;;;;;;;;;;;;;;;18.00;74.07;100784.13;5055858;28;19936;-56
2023/07/25 08:23:20;;;;;;;;;;;;;;;18.10;74.82;100776.28;5059465;28;20336;-56
2023/07/25 08:25:45;;;;;;;;;;;;;;;18.30;76.26;100776.19;5055966;28;19969;-56
2023/07/25 08:28:10;;;;;;;;;;;;;;;18.43;74.40;100772.63;5041449;28;20358;-57
2023/07/25 08:30:36;;;;;;;;;;;;;;;18.57;73.85;100777.78;5057749;28;19920;-56
2023/07/25 08:33:01;;;;;;;;;;;;;;;18.69;77.98;100780.34;5064244;28;20019;-54
2023/07/25 08:35:26;;;;;;;;;;;;;;;18.93;72.33;100779.31;5058362;28;19920;-56
2023/07/25 08:37:51;;;;;;;;;;;;;;;19.07;73.09;100789.63;5049747;27;19992;-59
2023/07/25 08:40:17;;;;;;;;;;;;;;;19.13;71.88;100793.91;5063755;28;19921;-60
2023/07/25 08:42:45;;;;;;;;;;;;;;;19.32;75.23;100794.63;5060395;28;20396;-57
2023/07/25 08:45:10;;;;;;;;;;;;;;;19.54;72.79;100788.34;5063649;28;19922;-57
2023/07/25 08:47:38;;;;;;;;;;;;;;;19.76;70.04;100787.25;5062930;28;20011;-57
2023/07/25 08:50:06;;;;;;;;;;;;;;;20.02;70.11;100786.97;5064267;28;19920;-59
2023/07/25 08:52:31;;;;;;;;;;;;;;;20.27;71.02;100792.75;5063718;28;19924;-58
2023/07/25 08:54:57;;;;;;;;;;;;;;;20.15;66.02;100794.66;5061750;28;19921;-57
2023/07/25 08:57:23;;;;;;;;;;;;;;;20.15;68.82;100802.47;5063708;28;19945;-58
2023/07/25 08:59:48;;;;;;;;;;;;;;;20.18;71.81;100798.06;5058401;28;20000;-57
2023/07/25 09:02:15;;;;;;;;;;;;;;;20.09;61.46;100801.66;5063968;28;19917;-57
2023/07/25 09:04:41;;;;;;;;;;;;;;;20.08;64.85;100805.16;5059723;28;19932;-57
2023/07/25 09:07:06;;;;;;;;;;;;;;;19.90;63.45;100807.09;5059719;28;19916;-47
2023/07/25 09:09:31;;;;;;;;;;;;;;;19.64;66.10;100815.22;5061666;28;19928;-47
2023/07/25 09:11:58;;;;;;;;;;;;;;;19.55;70.32;100803.09;5061738;27;19920;-47
2023/07/25 09:14:23;;;;;;;;;;;;;;;19.60;70.38;100808.31;5061480;28;20294;-49
2023/07/25 09:16:48;;;;;;;;;;;;;;;19.51;68.58;100799.66;5059256;28;20377;-50
2023/07/25 09:19:14;;;;;;;;;;;;;;;19.50;68.12;100804.88;5057278;28;19925;-47
2023/07/25 09:21:46;;;;;;;;;;;;;;;19.51;67.44;100807.47;5058291;28;19921;-46
2023/07/25 09:24:11;;;;;;;;;;;;;;;19.36;67.39;100804.16;5057248;28;19931;-45
2023/07/25 09:26:39;;;;;;;;;;;;;;;19.32;61.29;100803.31;5058830;28;20291;-45
2023/07/25 09:29:04;;;;;;;;;;;;;;;19.45;63.70;100809.28;5058211;28;19920;-44
2023/07/25 09:31:30;;;;;;;;;;;;;;;19.50;67.88;100807.50;5055275;28;20400;-44
2023/07/25 09:33:56;;;;;;;;;;;;;;;19.66;62.49;100803.91;5041273;28;19920;-46
2023/07/25 09:36:21;;;;;;;;;;;;;;;19.87;66.78;100801.94;5060720;28;20047;-44
2023/07/25 09:38:48;;;;;;;;;;;;;;;20.04;60.74;100813.91;5061028;28;19916;-45
2023/07/25 09:41:14;;;;;;;;;;;;;;;20.20;60.63;100806.75;5058349;28;19920;-46
2023/07/25 09:43:39;;;;;;;;;;;;;;;20.27;56.45;100823.22;5059821;28;19939;-47
2023/07/25 09:46:04;;;;;;;;;;;;;;;20.10;60.07;100818.19;5060858;28;19931;-51
2023/07/25 09:48:31;;;;;;;;;;;;;;;19.63;56.37;100822.16;5058650;28;20027;-48
2023/07/25 09:50:56;;;;;;;;;;;;;;;19.24;62.88;100821.63;5050753;28;20486;-48
2023/07/25 09:53:22;;;;;;;;;;;;;;;18.97;63.29;100822.69;5052543;28;20007;-47
2023/07/25 09:55:47;;;;;;;;;;;;;;;18.77;61.89;100814.16;5059063;28;20320;-48
2023/07/25 09:58:12;;;;;;;;;;;;;;;18.84;64.44;100818.44;5060842;27;19999;-46
2023/07/25 10:00:38;;;;;;;;;;;;;;;18.97;64.26;100822.69;5054337;28;19920;-49
2023/07/25 10:03:03;;;;;;;;;;;;;;;18.94;63.10;100822.72;5054723;28;19920;-47
2023/07/25 10:05:29;;;;;;;;;;;;;;;19.03;59.47;100814.81;5060916;28;19936;-47
2023/07/25 10:07:55;;;;;;;;;;;;;;;19.22;64.92;100818.16;5058056;28;19932;-47
2023/07/25 10:10:21;;;;;;;;;;;;;;;19.36;61.84;100809.38;5076976;27;19999;-44
2023/07/25 10:12:46;;;;;;;;;;;;;;;19.35;60.00;100812.84;5057034;28;20003;-55
2023/07/25 10:15:12;;;;;;;;;;;;;;;19.31;59.54;100816.38;5031692;28;19981;-57
2023/07/25 10:17:37;;;;;;;;;;;;;;;19.37;59.61;100814.56;5038871;28;19928;-56
2023/07/25 10:20:05;;;;;;;;;;;;;;;19.59;59.07;100815.25;5058047;28;19940;-57
2023/07/25 10:22:41;;;;;;;;;;;;;;;19.60;58.37;100816.13;5059799;28;19991;-45
2023/07/25 10:25:10;;;;;;;;;;;;;;;19.34;55.86;100811.97;5069939;27;20010;-57
2023/07/25 10:27:35;;;;;;;;;;;;;;;19.29;57.06;100814.66;5056819;28;19924;-59
2023/07/25 10:30:01;;;;;;;;;;;;;;;19.37;58.45;100805.88;5041612;28;19993;-62
2023/07/25 10:32:43;;;;;;;;;;;;;;;19.42;56.09;100811.94;5050209;28;20387;-60
2023/07/25 10:35:08;;;;;;;;;;;;;;;19.48;58.44;100807.50;5053337;28;20898;-60
2023/07/25 10:37:38;;;;;;;;;;;;;;;19.57;57.29;100811.75;5050487;28;20430;-58
2023/07/25 10:40:12;;;;;;;;;;;;;;;19.73;57.28;100820.34;5055301;28;19927;-60
2023/07/25 10:42:42;;;;;;;;;;;;;;;19.84;54.20;100813.28;5050706;28;20293;-60
2023/07/25 10:45:18;;;;;;;;;;;;;;;20.01;56.67;100811.31;5052670;27;19923;-62
2023/07/25 10:47:44;;;;;;;;;;;;;;;20.27;54.17;100818.00;5051558;27;19939;-62
2023/07/25 10:50:09;;;;;;;;;;;;;;;20.26;52.18;100811.91;5053448;28;20098;-60
2023/07/25 10:52:41;;;;;;;;;;;;;;;20.09;54.15;100811.25;5050978;28;20011;-60
2023/07/25 10:55:09;;;;;;;;;;;;;;;20.09;54.12;100806.88;5049524;28;20294;-60
2023/07/25 10:57:34;;;;;;;;;;;;;;;20.16;51.15;100805.06;5038759;27;19916;-61
2023/07/25 11:00:09;;;;;;;;;;;;;;;20.27;52.98;100820.63;5032582;28;19928;-61
2023/07/25 11:02:40;;;;;;;;;;;;;;;20.05;50.47;100813.03;5053557;28;19940;-61
2023/07/25 11:05:14;;;;;;;;;;;;;;;20.03;54.40;100811.31;5052131;28;19948;-61
2023/07/25 11:07:40;;;;;;;;;;;;;;;20.17;56.11;100798.97;5062505;28;19921;-60
2023/07/25 11:10:06;;;;;;;;;;;;;;;20.33;55.20;100799.66;5062220;28;20279;-60
2023/07/25 11:12:32;;;;;;;;;;;;;;;20.50;52.53;100796.81;5061909;28;19934;-54
2023/07/25 11:14:57;;;;;;;;;;;;;;;20.49;54.01;100800.31;5045334;28;20986;-57
2023/07/25 11:17:27;;;;;;;;;;;;;;;20.46;54.58;100813.44;5062162;28;19921;-57
2023/07/25 11:19:52;;;;;;;;;;;;;;;20.34;52.56;100815.28;5062907;28;19924;-54
2023/07/25 11:22:18;;;;;;;;;;;;;;;20.22;51.14;100814.56;5059961;27;20020;-55
2023/07/25 11:24:44;;;;;;;;;;;;;;;20.11;54.86;100803.41;5059356;27;19956;-54
2023/07/25 11:27:10;;;;;;;;;;;;;;;19.99;55.94;100809.63;5072280;27;19969;-54
2023/07/25 11:29:35;;;;;;;;;;;;;;;19.67;56.14;100808.22;5055330;28;19971;-51
2023/07/25 11:32:01;;;;;;;;;;;;;;;19.44;56.62;100812.75;5055591;28;20362;-51
2023/07/25 11:34:26;;;;;;;;;;;;;;;19.39;54.39;100818.00;5056941;28;19928;-50
2023/07/25 11:36:53;;;;;;;;;;;;;;;19.62;56.77;100812.63;5058137;28;19920;-50
2023/07/25 11:39:19;;;;;;;;;;;;;;;19.81;56.23;100824.59;5038681;28;20023;-51
2023/07/25 11:41:45;;;;;;;;;;;;;;;20.05;56.03;100812.16;5060264;28;20039;-49
2023/07/25 11:44:11;;;;;;;;;;;;;;;20.34;55.81;100820.50;5048855;27;19948;-51
2023/07/25 11:46:42;;;;;;;;;;;;;;;20.44;49.44;100836.03;5059515;27;20024;-51
2023/07/25 11:49:08;;;;;;;;;;;;;;;20.31;49.88;100833.59;5063908;28;19913;-51
2023/07/25 11:51:34;;;;;;;;;;;;;;;20.39;50.58;100824.81;5065613;28;19964;-51
2023/07/25 11:53:59;;;;;;;;;;;;;;;20.39;51.76;100830.03;5060697;27;19928;-51
2023/07/25 11:56:25;;;;;;;;;;;;;;;20.33;51.93;100830.97;5056144;28;19929;-52
2023/07/25 11:58:50;;;;;;;;;;;;;;;20.37;52.48;100840.47;5053032;28;20020;-49
2023/07/25 12:01:16;;;;;;;;;;;;;;;20.40;51.61;100827.41;5038675;28;20064;-49
2023/07/25 12:03:46;;;;;;;;;;;;;;;20.48;48.72;100828.19;5064296;28;20016;-50
2023/07/25 12:06:11;;;;;;;;;;;;;;;20.34;46.62;100820.50;5059333;28;19928;-50
2023/07/25 12:08:40;;;;;;;;;;;;;;;20.25;46.07;100820.59;5053743;28;19928;-52
2023/07/25 12:11:10;;;;;;;;;;;;;;;20.23;48.17;100830.22;5052438;28;19917;-51
2023/07/25 12:13:46;;;;;;;;;;;;;;;20.24;46.94;100818.88;5055509;27;19958;-48
2023/07/25 12:16:28;;;;;;;;;;;;;;;20.31;46.87;100823.13;5055548;28;19927;-51
2023/07/25 12:18:58;;;;;;;;;;;;;;;20.38;49.46;100816.09;5051263;28;19929;-49
2023/07/25 12:21:24;;;;;;;;;;;;;;;20.43;47.69;100823.88;5056069;28;19982;-48
2023/07/25 12:23:51;;;;;;;;;;;;;;;20.53;46.62;100815.06;5055747;27;19928;-52